createdAt,value
2019-02-21T00:01:51.841Z,4.00
2019-02-21T00:04:41.254Z,3.95
2019-02-21T00:07:30.912Z,4.02
2019-02-21T00:10:20.466Z,4.00
2019-02-21T00:13:10.005Z,4.02
2019-02-21T00:15:59.792Z,4.13
2019-02-21T00:18:48.978Z,4.08
2019-02-21T00:21:38.263Z,4.05
2019-02-21T00:24:28.126Z,4.00
2019-02-21T00:27:17.368Z,3.98
2019-02-21T00:30:06.890Z,3.91
2019-02-21T00:32:56.476Z,3.92
2019-02-21T00:35:46.147Z,3.87
2019-02-21T00:38:36.776Z,3.93
2019-02-21T00:41:26.418Z,3.87
2019-02-21T00:44:15.579Z,3.88
2019-02-21T00:47:05.016Z,3.93
2019-02-21T00:49:54.294Z,3.86
2019-02-21T00:52:44.339Z,3.93
2019-02-21T00:55:33.886Z,3.92
2019-02-21T00:58:23.317Z,4.00
2019-02-21T01:01:13.262Z,4.00
2019-02-21T01:04:02.719Z,4.01
2019-02-21T01:06:52.407Z,4.05
2019-02-21T01:09:41.995Z,3.95
2019-02-21T01:12:31.810Z,3.96
2019-02-21T01:15:22.082Z,4.00
2019-02-21T01:18:11.729Z,4.03
2019-02-21T01:21:01.176Z,4.08
2019-02-21T01:23:50.344Z,4.01
2019-02-21T01:26:39.554Z,3.94
2019-02-21T01:29:29.408Z,3.94
2019-02-21T01:32:18.955Z,3.96
2019-02-21T01:35:08.925Z,4.01
2019-02-21T01:37:58.332Z,4.03
2019-02-21T01:40:48.291Z,3.96
2019-02-21T01:43:37.441Z,3.97
2019-02-21T01:46:26.308Z,4.01
2019-02-21T01:49:15.569Z,3.97
2019-02-21T01:52:04.868Z,3.97
2019-02-21T01:54:54.514Z,3.96
2019-02-21T01:57:43.916Z,3.89
2019-02-21T02:00:33.446Z,3.92
2019-02-21T02:03:22.594Z,3.83
2019-02-21T02:06:12.172Z,3.88
2019-02-21T02:09:02.644Z,3.89
2019-02-21T02:11:52.025Z,3.95
2019-02-21T02:14:41.986Z,4.01
2019-02-21T02:17:31.489Z,3.99
2019-02-21T02:20:20.905Z,4.02
2019-02-21T02:23:10.481Z,4.03
2019-02-21T02:26:00.423Z,3.91
2019-02-21T02:28:49.943Z,3.76
2019-02-21T02:31:39.669Z,3.78
2019-02-21T02:34:28.786Z,3.80
2019-02-21T02:37:17.903Z,3.70
2019-02-21T02:40:07.942Z,3.75
2019-02-21T02:42:57.655Z,3.79
2019-02-21T02:45:46.897Z,3.81
2019-02-21T02:48:37.197Z,3.79
2019-02-21T02:51:26.497Z,3.84
2019-02-21T02:54:15.900Z,3.85
2019-02-21T02:57:05.503Z,3.90
2019-02-21T02:59:54.909Z,3.92
2019-02-21T03:02:44.348Z,3.94
2019-02-21T03:05:34.084Z,3.85
2019-02-21T03:08:23.964Z,3.84
2019-02-21T03:11:13.742Z,3.85
2019-02-21T03:14:03.030Z,3.92
2019-02-21T03:16:52.230Z,3.92
2019-02-21T03:19:41.780Z,3.95
2019-02-21T03:22:31.252Z,3.92
2019-02-21T03:25:20.738Z,3.97
2019-02-21T03:28:10.432Z,3.84
2019-02-21T03:30:59.846Z,3.85
2019-02-21T03:33:49.014Z,3.83
2019-02-21T03:36:39.371Z,3.90
2019-02-21T03:39:28.534Z,3.84
2019-02-21T03:42:18.175Z,3.84
2019-02-21T03:45:08.945Z,3.86
2019-02-21T03:47:58.983Z,3.78
2019-02-21T03:50:48.682Z,3.82
2019-02-21T03:53:38.426Z,3.75
2019-02-21T03:56:27.617Z,3.78
2019-02-21T03:59:17.408Z,3.64
2019-02-21T04:02:06.849Z,3.63
2019-02-21T04:04:56.582Z,3.59
2019-02-21T04:07:45.919Z,3.67
2019-02-21T04:10:35.910Z,3.59
2019-02-21T04:13:25.726Z,3.57
2019-02-21T04:16:15.534Z,3.52
2019-02-21T04:19:05.057Z,3.56
2019-02-21T04:21:55.112Z,3.46
2019-02-21T04:24:44.952Z,3.45
2019-02-21T04:27:34.549Z,3.44
2019-02-21T04:30:24.116Z,3.47
2019-02-21T04:33:13.327Z,3.48
2019-02-21T04:36:03.083Z,3.51
2019-02-21T04:38:52.497Z,3.34
2019-02-21T04:41:41.699Z,3.24
2019-02-21T04:44:31.727Z,3.33
2019-02-21T04:47:21.371Z,2.82
2019-02-21T04:50:11.200Z,3.30
2019-02-21T04:53:00.538Z,3.33
2019-02-21T04:55:50.272Z,3.23
2019-02-21T04:58:39.761Z,3.25
2019-02-21T05:01:30.575Z,3.14
2019-02-21T05:04:19.863Z,2.92
2019-02-21T05:07:09.488Z,2.87
2019-02-21T05:09:59.243Z,2.96
2019-02-21T05:12:48.458Z,2.85
2019-02-21T05:15:37.923Z,2.96
2019-02-21T05:18:27.505Z,2.99
2019-02-21T05:21:17.144Z,2.90
2019-02-21T05:24:08.867Z,2.93
2019-02-21T05:27:07.284Z,3.04
2019-02-21T05:29:56.390Z,3.04
2019-02-21T05:33:01.170Z,3.05
2019-02-21T05:36:03.890Z,3.22
2019-02-21T05:39:24.929Z,3.10
2019-02-21T05:42:21.214Z,3.16
2019-02-21T05:45:35.808Z,3.14
2019-02-21T05:48:33.152Z,3.04
2019-02-21T05:51:31.568Z,2.98
2019-02-21T05:54:39.951Z,3.03
2019-02-21T05:57:51.755Z,3.06
2019-02-21T06:01:00.066Z,3.07
2019-02-21T06:04:19.313Z,3.04
2019-02-21T06:07:27.265Z,2.89
2019-02-21T06:10:34.967Z,2.81
2019-02-21T06:13:46.687Z,2.77
2019-02-21T06:16:53.365Z,2.85
2019-02-21T06:20:02.199Z,2.95
2019-02-21T06:23:02.542Z,2.82
2019-02-21T06:26:10.681Z,2.97
2019-02-21T06:29:10.480Z,2.94
2019-02-21T06:32:00.026Z,2.97
2019-02-21T06:34:49.231Z,3.06
2019-02-21T06:37:38.415Z,3.06
2019-02-21T06:40:27.811Z,3.05
2019-02-21T06:43:17.447Z,3.06
2019-02-21T06:46:06.985Z,3.02
2019-02-21T06:48:56.653Z,3.03
2019-02-21T06:51:46.345Z,2.99
2019-02-21T06:54:35.522Z,2.99
2019-02-21T06:57:25.039Z,2.98
2019-02-21T07:00:14.556Z,3.02
2019-02-21T07:03:15.238Z,3.12
2019-02-21T07:05:55.509Z,3.17
2019-02-21T07:08:45.208Z,3.22
2019-02-21T07:11:34.573Z,3.24
2019-02-21T07:14:24.102Z,3.11
2019-02-21T07:17:13.532Z,3.21
2019-02-21T07:20:03.481Z,3.35
2019-02-21T07:22:52.701Z,3.29
2019-02-21T07:26:03.719Z,3.38
2019-02-21T07:28:53.377Z,3.49
2019-02-21T07:31:42.650Z,3.46
2019-02-21T07:34:32.256Z,3.54
2019-02-21T07:37:21.795Z,3.52
2019-02-21T07:40:19.675Z,3.49
2019-02-21T07:43:03.722Z,3.49
2019-02-21T07:45:53.196Z,3.70
2019-02-21T07:48:43.240Z,3.76
2019-02-21T07:51:32.703Z,3.93
2019-02-21T07:54:22.347Z,4.09
2019-02-21T07:57:11.615Z,4.15
2019-02-21T08:00:01.411Z,4.18
2019-02-21T08:02:50.589Z,4.27
2019-02-21T08:05:40.122Z,4.21
2019-02-21T08:08:32.276Z,4.40
2019-02-21T08:11:20.544Z,4.60
2019-02-21T08:14:11.220Z,4.80
2019-02-21T08:17:00.745Z,5.07
2019-02-21T08:19:50.188Z,5.51
2019-02-21T08:22:39.778Z,5.46
2019-02-21T08:25:29.230Z,5.52
2019-02-21T08:28:18.417Z,5.60
2019-02-21T08:31:07.911Z,5.70
2019-02-21T08:34:05.362Z,6.20
2019-02-21T08:36:54.642Z,6.26
2019-02-21T08:39:44.251Z,6.33
2019-02-21T08:42:33.721Z,6.34
2019-02-21T08:45:23.108Z,6.71
2019-02-21T08:48:13.506Z,6.98
2019-02-21T08:51:06.082Z,7.10
2019-02-21T08:53:54.758Z,7.31
2019-02-21T08:56:44.296Z,7.33
2019-02-21T08:59:33.750Z,7.47
2019-02-21T09:02:23.734Z,7.77
2019-02-21T09:05:13.162Z,8.05
2019-02-21T09:08:03.163Z,8.08
2019-02-21T09:10:52.929Z,8.52
2019-02-21T09:13:42.517Z,8.66
2019-02-21T09:16:32.098Z,8.77
2019-02-21T09:19:21.460Z,8.85
2019-02-21T09:22:15.253Z,8.95
2019-02-21T09:25:10.004Z,8.89
2019-02-21T09:27:59.972Z,9.15
2019-02-21T09:30:49.770Z,9.20
2019-02-21T09:33:38.996Z,9.17
2019-02-21T09:36:28.376Z,9.51
2019-02-21T09:39:17.893Z,9.63
2019-02-21T09:42:08.048Z,9.99
2019-02-21T09:44:57.320Z,9.98
2019-02-21T09:47:47.239Z,9.85
2019-02-21T09:50:36.717Z,9.53
2019-02-21T09:53:26.549Z,9.83
2019-02-21T09:56:16.000Z,9.43
2019-02-21T09:59:06.799Z,9.54
2019-02-21T10:01:57.603Z,9.97
2019-02-21T10:04:47.359Z,9.83
2019-02-21T10:07:37.627Z,9.95
2019-02-21T10:10:26.805Z,10.34
2019-02-21T10:13:16.517Z,10.17
2019-02-21T10:16:06.115Z,10.07
2019-02-21T10:18:55.857Z,10.38
2019-02-21T10:21:45.320Z,10.60
2019-02-21T10:24:35.026Z,10.46
2019-02-21T10:27:24.304Z,10.13
2019-02-21T10:30:14.721Z,10.58
2019-02-21T10:33:04.125Z,10.51
2019-02-21T10:35:53.737Z,10.66
2019-02-21T10:38:42.998Z,10.93
2019-02-21T10:41:32.921Z,10.98
2019-02-21T10:44:22.239Z,11.04
2019-02-21T10:47:12.283Z,11.63
2019-02-21T10:50:01.748Z,11.77
2019-02-21T10:52:51.646Z,11.84
2019-02-21T10:55:40.845Z,11.93
2019-02-21T10:58:30.666Z,11.81
2019-02-21T11:01:20.811Z,11.89
2019-02-21T11:04:12.840Z,11.83
2019-02-21T11:07:02.305Z,11.37
2019-02-21T11:09:52.180Z,11.65
2019-02-21T11:12:41.579Z,12.42
2019-02-21T11:15:31.613Z,11.89
2019-02-21T11:18:20.771Z,11.98
2019-02-21T11:21:13.005Z,12.62
2019-02-21T11:24:02.293Z,12.94
2019-02-21T11:26:51.934Z,13.29
2019-02-21T11:29:41.272Z,13.33
2019-02-21T11:32:30.648Z,12.69
2019-02-21T11:35:20.104Z,12.32
2019-02-21T11:38:09.722Z,12.21
2019-02-21T11:40:59.220Z,12.92
2019-02-21T11:43:49.100Z,13.08
2019-02-21T11:46:38.606Z,12.18
2019-02-21T11:49:27.945Z,11.92
2019-02-21T11:52:17.845Z,12.01
2019-02-21T11:55:08.154Z,12.39
2019-02-21T11:57:57.750Z,13.06
2019-02-21T12:00:46.981Z,12.89
2019-02-21T12:03:36.792Z,12.58
2019-02-21T12:06:25.973Z,12.66
2019-02-21T12:09:15.692Z,11.94
2019-02-21T12:12:05.274Z,12.23
2019-02-21T12:14:54.904Z,12.24
2019-02-21T12:17:44.337Z,12.51
2019-02-21T12:20:34.272Z,12.41
2019-02-21T12:23:23.408Z,12.05
2019-02-21T12:26:12.845Z,12.32
2019-02-21T12:29:02.203Z,12.09
2019-02-21T12:31:51.909Z,11.39
2019-02-21T12:34:41.061Z,11.75
2019-02-21T12:37:30.406Z,11.82
2019-02-21T12:40:19.959Z,12.04
2019-02-21T12:43:10.021Z,12.05
2019-02-21T12:46:02.247Z,12.20
2019-02-21T12:48:51.695Z,12.00
2019-02-21T12:51:41.863Z,11.46
2019-02-21T12:54:31.246Z,11.12
2019-02-21T12:57:20.438Z,11.01
2019-02-21T13:00:15.305Z,10.93
2019-02-21T13:03:05.025Z,10.63
2019-02-21T13:05:54.942Z,10.54
2019-02-21T13:08:44.594Z,10.63
2019-02-21T13:11:35.583Z,10.66
2019-02-21T13:14:25.383Z,10.39
2019-02-21T13:17:14.971Z,10.55
2019-02-21T13:20:05.776Z,10.17
2019-02-21T13:22:55.199Z,10.24
2019-02-21T13:25:44.549Z,10.08
2019-02-21T13:28:33.702Z,9.91
2019-02-21T13:31:23.200Z,9.92
2019-02-21T13:34:12.469Z,9.98
2019-02-21T13:37:02.263Z,9.82
2019-02-21T13:39:51.881Z,9.77
2019-02-21T13:42:41.248Z,9.64
2019-02-21T13:45:30.666Z,9.70
2019-02-21T13:48:20.293Z,9.85
2019-02-21T13:51:09.683Z,9.88
2019-02-21T13:53:59.433Z,9.80
2019-02-21T13:56:49.138Z,9.90
2019-02-21T13:59:39.011Z,10.03
2019-02-21T14:02:28.555Z,10.21
2019-02-21T14:05:18.130Z,10.11
2019-02-21T14:08:07.608Z,9.89
2019-02-21T14:10:57.535Z,9.92
2019-02-21T14:13:46.795Z,9.46
2019-02-21T14:16:46.120Z,9.29
2019-02-21T14:19:27.715Z,9.29
2019-02-21T14:22:17.288Z,9.33
2019-02-21T14:25:07.759Z,9.47
2019-02-21T14:27:57.167Z,9.46
2019-02-21T14:30:47.021Z,9.55
2019-02-21T14:33:36.535Z,9.45
2019-02-21T14:36:25.762Z,9.49
2019-02-21T14:39:15.781Z,9.47
2019-02-21T14:42:05.509Z,9.17
2019-02-21T14:44:54.730Z,9.29
2019-02-21T14:47:44.408Z,9.22
2019-02-21T14:50:35.962Z,9.44
2019-02-21T14:53:24.696Z,9.28
2019-02-21T14:56:13.888Z,9.54
2019-02-21T14:59:03.858Z,9.28
2019-02-21T15:01:53.918Z,9.17
2019-02-21T15:04:43.967Z,9.39
2019-02-21T15:07:33.348Z,9.45
2019-02-21T15:10:22.848Z,9.45
2019-02-21T15:13:12.202Z,9.21
2019-02-21T15:16:01.329Z,9.41
2019-02-21T15:18:50.647Z,9.27
2019-02-21T15:21:40.776Z,9.35
2019-02-21T15:24:30.024Z,9.26
2019-02-21T15:27:19.546Z,9.22
2019-02-21T15:30:11.283Z,9.13
2019-02-21T15:33:01.014Z,9.03
2019-02-21T15:35:50.124Z,9.06
2019-02-21T15:38:40.004Z,8.91
2019-02-21T15:41:29.480Z,8.66
2019-02-21T15:44:19.328Z,8.63
2019-02-21T15:47:08.896Z,8.60
2019-02-21T15:49:58.073Z,8.49
2019-02-21T15:52:47.380Z,8.58
2019-02-21T15:55:37.117Z,8.59
2019-02-21T15:58:26.560Z,8.46
2019-02-21T16:01:16.234Z,8.39
2019-02-21T16:04:06.498Z,8.37
2019-02-21T16:06:56.107Z,8.36
2019-02-21T16:09:45.797Z,8.42
2019-02-21T16:12:35.233Z,8.40
2019-02-21T16:15:25.076Z,8.22
2019-02-21T16:18:14.519Z,8.19
2019-02-21T16:21:04.618Z,8.20
2019-02-21T16:23:54.274Z,8.31
2019-02-21T16:26:43.445Z,8.13
2019-02-21T16:29:32.931Z,8.26
2019-02-21T16:32:22.486Z,8.28
2019-02-21T16:35:12.212Z,8.19
2019-02-21T16:38:01.387Z,8.27
2019-02-21T16:40:51.212Z,8.14
2019-02-21T16:43:40.867Z,8.35
2019-02-21T16:46:30.549Z,8.32
2019-02-21T16:49:19.737Z,8.08
2019-02-21T16:52:09.858Z,8.16
2019-02-21T16:54:59.003Z,7.95
2019-02-21T16:57:48.589Z,8.07
2019-02-21T17:00:50.382Z,7.99
2019-02-21T17:03:30.601Z,8.08
2019-02-21T17:06:20.420Z,8.02
2019-02-21T17:09:11.953Z,8.07
2019-02-21T17:15:39.621Z,8.24
2019-02-21T17:18:28.855Z,7.94
2019-02-21T17:21:20.921Z,7.94
2019-02-21T17:24:10.923Z,7.89
2019-02-21T17:27:00.870Z,7.89
2019-02-21T17:29:50.487Z,7.85
2019-02-21T17:32:40.010Z,7.91
2019-02-21T17:35:29.624Z,7.86
2019-02-21T17:38:18.724Z,7.92
2019-02-21T17:41:08.194Z,8.09
2019-02-21T17:43:57.288Z,7.90
2019-02-21T17:46:46.501Z,7.89
2019-02-21T17:49:36.437Z,7.95
2019-02-21T17:55:13.718Z,7.82
2019-02-21T17:58:03.096Z,7.83
2019-02-21T18:00:52.256Z,7.87
2019-02-21T18:03:41.625Z,7.98
2019-02-21T18:06:31.787Z,7.86
2019-02-21T18:09:21.273Z,7.92
2019-02-21T18:12:11.175Z,8.07
2019-02-21T18:15:00.731Z,8.04
2019-02-21T18:17:50.337Z,7.94
2019-02-21T18:20:39.687Z,8.03
2019-02-21T18:23:29.676Z,7.97
2019-02-21T18:26:20.058Z,8.11
2019-02-21T18:29:12.472Z,8.10
2019-02-21T18:32:02.218Z,8.06
2019-02-21T18:34:51.646Z,8.03
2019-02-21T18:37:47.291Z,8.04
2019-02-21T18:40:32.000Z,8.02
2019-02-21T18:43:21.482Z,8.03
2019-02-21T18:46:11.028Z,7.99
2019-02-21T18:49:00.652Z,8.01
2019-02-21T18:51:50.384Z,7.87
2019-02-21T18:54:39.974Z,7.85
2019-02-21T18:57:29.680Z,7.88
2019-02-21T19:00:20.345Z,7.99
2019-02-21T19:03:10.311Z,8.15
2019-02-21T19:05:59.698Z,7.94
2019-02-21T19:08:49.125Z,7.92
2019-02-21T19:11:38.733Z,7.88
2019-02-21T19:14:27.988Z,7.99
2019-02-21T19:17:17.503Z,8.05
2019-02-21T19:20:08.936Z,8.01
2019-02-21T19:22:58.844Z,8.01
2019-02-21T19:25:48.350Z,8.04
2019-02-21T19:28:37.906Z,7.98
2019-02-21T19:31:27.864Z,8.00
2019-02-21T19:34:17.246Z,8.05
2019-02-21T19:37:07.124Z,7.89
2019-02-21T19:39:56.452Z,7.93
2019-02-21T19:42:49.136Z,8.02
2019-02-21T19:45:38.451Z,7.97
2019-02-21T19:48:28.213Z,7.97
2019-02-21T19:51:17.844Z,8.09
2019-02-21T19:54:10.371Z,8.01
2019-02-21T19:56:59.790Z,7.97
2019-02-21T19:59:49.362Z,8.09
2019-02-21T20:02:39.063Z,7.84
2019-02-21T20:05:29.454Z,7.94
2019-02-21T20:08:21.572Z,7.88
2019-02-21T20:11:10.331Z,7.77
2019-02-21T20:13:59.881Z,7.71
2019-02-21T20:16:49.216Z,7.73
2019-02-21T20:19:39.974Z,7.62
2019-02-21T20:22:30.102Z,7.55
2019-02-21T20:25:20.636Z,7.53
2019-02-21T20:28:10.966Z,7.50
2019-02-21T20:31:00.555Z,7.47
2019-02-21T20:33:50.521Z,7.50
2019-02-21T20:36:50.472Z,7.37
2019-02-21T20:39:30.957Z,7.32
2019-02-21T20:42:20.209Z,7.35
2019-02-21T20:45:10.302Z,7.39
2019-02-21T20:47:59.785Z,7.47
2019-02-21T20:50:56.888Z,7.35
2019-02-21T20:53:40.584Z,7.41
2019-02-21T20:56:30.108Z,7.28
2019-02-21T20:59:19.954Z,7.40
2019-02-21T21:02:11.296Z,7.12
2019-02-21T21:05:00.773Z,7.31
2019-02-21T21:07:50.393Z,7.14
2019-02-21T21:10:40.806Z,7.13
2019-02-21T21:13:30.432Z,7.08
2019-02-21T21:16:20.482Z,6.95
2019-02-21T21:19:12.744Z,7.04
2019-02-21T21:22:01.949Z,7.15
2019-02-21T21:24:51.957Z,7.10
2019-02-21T21:27:41.464Z,7.05
2019-02-21T21:30:30.901Z,7.02
2019-02-21T21:33:20.210Z,6.93
2019-02-21T21:36:09.559Z,7.01
2019-02-21T21:38:58.971Z,6.98
2019-02-21T21:41:48.189Z,6.92
2019-02-21T21:44:37.344Z,7.03
2019-02-21T21:47:27.297Z,6.94
2019-02-21T21:50:17.291Z,6.88
2019-02-21T21:53:06.928Z,6.93
2019-02-21T21:55:56.241Z,6.86
2019-02-21T21:58:45.836Z,6.94
2019-02-21T22:01:35.345Z,6.40
2019-02-21T22:04:25.282Z,6.89
2019-02-21T22:07:14.788Z,6.82
2019-02-21T22:10:05.309Z,6.83
2019-02-21T22:12:54.998Z,6.81
2019-02-21T22:15:44.933Z,6.79
2019-02-21T22:18:34.319Z,6.79
2019-02-21T22:21:24.169Z,6.90
2019-02-21T22:24:13.415Z,6.87
2019-02-21T22:27:03.681Z,6.70
2019-02-21T22:29:53.093Z,6.63
2019-02-21T22:32:43.072Z,6.67
2019-02-21T22:35:32.552Z,6.65
2019-02-21T22:38:21.884Z,6.69
2019-02-21T22:41:11.109Z,6.66
2019-02-21T22:44:00.695Z,6.70
2019-02-21T22:46:49.900Z,6.72
2019-02-21T22:49:39.559Z,6.72
2019-02-21T22:52:28.735Z,6.69
2019-02-21T22:55:18.492Z,6.59
2019-02-21T22:58:08.072Z,6.57
2019-02-21T23:01:23.592Z,6.60
2019-02-21T23:04:51.503Z,6.64
2019-02-21T23:07:48.053Z,6.60
2019-02-21T23:10:37.535Z,6.63
2019-02-21T23:13:26.660Z,6.67
2019-02-21T23:16:16.478Z,6.65
2019-02-21T23:19:07.815Z,6.56
2019-02-21T23:21:57.415Z,6.70
2019-02-21T23:24:46.639Z,6.68
2019-02-21T23:27:36.668Z,6.66
2019-02-21T23:30:25.969Z,6.65
2019-02-21T23:33:15.090Z,6.73
2019-02-21T23:36:04.728Z,6.64
2019-02-21T23:38:54.035Z,6.73
2019-02-21T23:41:43.640Z,6.77
2019-02-21T23:44:33.485Z,6.63
2019-02-21T23:47:23.072Z,6.77
2019-02-21T23:50:13.066Z,6.77
2019-02-21T23:53:02.294Z,6.71
2019-02-21T23:55:52.180Z,6.76
2019-02-21T23:58:41.681Z,6.74
